Time;durP1;ratioP1;P1;durP2;ratioP2;P2;SDS_P1;SDS_P2;PMS_P1;PMS_P2;Temp;Humidity;BMP_temperature;BMP_pressure;BME280_temperature;BME280_humidity;BME280_pressure;Samples;Min_cycle;Max_cycle;Signal;HPM_P1;HPM_P2
2022/04/27 00:00:51;;;;;;;18.03;16.13;;;7.00;93.00;;;;;;5089977;28;20484;-75
2022/04/27 00:03:20;;;;;;;16.90;14.63;;;7.00;93.10;;;;;;5075429;28;20484;-75
2022/04/27 00:05:48;;;;;;;18.03;16.20;;;6.90;93.10;;;;;;5077446;28;20473;-76
2022/04/27 00:08:16;;;;;;;15.53;14.03;;;6.90;93.20;;;;;;5075382;28;20806;-76
2022/04/27 00:10:46;;;;;;;17.50;15.37;;;6.90;93.20;;;;;;5075830;28;20869;-76
2022/04/27 00:13:15;;;;;;;20.03;18.03;;;6.90;93.30;;;;;;5074750;28;20437;-76
2022/04/27 00:15:44;;;;;;;20.27;18.43;;;6.80;93.30;;;;;;5075165;28;20802;-76
2022/04/27 00:18:12;;;;;;;21.00;19.23;;;6.80;93.70;;;;;;5076872;28;20560;-76
2022/04/27 00:20:40;;;;;;;19.93;17.97;;;6.80;93.50;;;;;;5083749;28;20868;-76
2022/04/27 00:23:09;;;;;;;19.93;17.87;;;6.80;93.50;;;;;;5074813;28;20475;-76
2022/04/27 00:25:37;;;;;;;21.13;19.30;;;6.70;93.60;;;;;;5075362;28;20450;-75
2022/04/27 00:28:07;;;;;;;22.87;20.77;;;6.70;93.60;;;;;;5074564;28;20843;-76
2022/04/27 00:30:36;;;;;;;19.73;17.93;;;6.70;93.60;;;;;;5076256;28;20433;-76
2022/04/27 00:33:04;;;;;;;21.57;19.43;;;6.70;93.70;;;;;;5076957;28;20442;-76
2022/04/27 00:35:32;;;;;;;20.37;18.37;;;6.60;93.70;;;;;;5077890;28;20441;-76
2022/04/27 00:38:01;;;;;;;23.80;19.80;;;6.60;93.80;;;;;;5091242;28;20495;-76
2022/04/27 00:40:29;;;;;;;24.03;21.73;;;6.60;93.90;;;;;;5108957;28;20491;-75
2022/04/27 00:42:57;;;;;;;22.30;20.33;;;6.50;93.90;;;;;;5074951;28;20529;-76
2022/04/27 00:45:27;;;;;;;20.63;18.73;;;6.50;94.00;;;;;;5075552;28;20451;-77
2022/04/27 00:47:55;;;;;;;20.43;18.27;;;6.50;94.10;;;;;;5074553;28;20563;-76
2022/04/27 00:50:24;;;;;;;20.77;18.77;;;6.40;94.10;;;;;;5088056;28;20540;-76
2022/04/27 00:52:53;;;;;;;21.10;17.43;;;6.40;94.20;;;;;;5073830;28;20493;-77
2022/04/27 00:55:21;;;;;;;18.70;16.73;;;6.40;94.40;;;;;;5075474;28;20456;-76
2022/04/27 00:57:49;;;;;;;22.33;20.33;;;6.30;94.40;;;;;;5087516;28;20459;-76
2022/04/27 01:00:19;;;;;;;19.83;17.97;;;6.30;94.50;;;;;;5075496;28;20490;-77
2022/04/27 01:02:48;;;;;;;22.77;20.57;;;6.30;94.60;;;;;;5073946;28;20898;-76
2022/04/27 01:05:17;;;;;;;26.10;23.70;;;6.20;94.70;;;;;;5087682;28;20456;-77
2022/04/27 01:07:45;;;;;;;21.97;19.80;;;6.20;94.70;;;;;;5074204;28;20460;-76
2022/04/27 01:10:13;;;;;;;25.30;23.30;;;6.20;94.90;;;;;;5073835;28;20456;-77
2022/04/27 01:12:42;;;;;;;27.50;25.40;;;6.10;94.90;;;;;;5074853;28;20462;-76
2022/04/27 01:15:31;;;;;;;21.90;19.70;;;6.10;94.90;;;;;;5075552;28;20454;-77
2022/04/27 01:18:01;;;;;;;23.70;21.63;;;6.10;95.00;;;;;;5072608;28;20493;-76
2022/04/27 01:20:37;;;;;;;25.63;23.47;;;6.10;95.10;;;;;;5112958;27;20467;-76
2022/04/27 01:23:06;;;;;;;25.90;23.83;;;6.10;95.40;;;;;;5094366;28;20479;-76
2022/04/27 01:25:49;;;;;;;20.57;18.77;;;6.10;95.30;;;;;;5093114;28;20543;-77
2022/04/27 01:28:19;;;;;;;21.87;19.77;;;6.00;95.30;;;;;;5128500;27;20529;-76
2022/04/27 01:30:48;;;;;;;30.10;27.97;;;6.00;95.30;;;;;;5094296;28;20450;-76
2022/04/27 01:33:16;;;;;;;30.73;28.03;;;6.00;95.40;;;;;;5093641;28;20433;-77
2022/04/27 01:35:45;;;;;;;27.43;25.27;;;6.00;95.50;;;;;;5081531;28;20510;-76
2022/04/27 01:38:17;;;;;;;18.33;16.13;;;6.00;95.50;;;;;;5108100;28;20523;-76
2022/04/27 01:40:45;;;;;;;25.77;23.80;;;6.00;95.60;;;;;;5072954;28;20513;-76
2022/04/27 01:43:15;;;;;;;30.67;28.33;;;6.00;95.60;;;;;;5078391;28;21003;-76
2022/04/27 01:45:44;;;;;;;25.13;22.70;;;5.90;95.70;;;;;;5120316;27;20452;-76
2022/04/27 01:48:13;;;;;;;17.97;16.17;;;6.00;95.80;;;;;;5073120;28;20564;-76
2022/04/27 01:50:41;;;;;;;22.43;20.30;;;5.90;95.80;;;;;;5079481;28;20978;-76
2022/04/27 01:55:56;;;;;;;28.37;25.77;;;5.90;95.90;;;;;;5093701;28;20443;-76
2022/04/27 01:58:25;;;;;;;28.30;26.00;;;5.90;96.20;;;;;;5091751;28;20885;-77
2022/04/27 02:00:55;;;;;;;20.83;18.93;;;5.90;95.90;;;;;;5094727;28;20998;-76
2022/04/27 02:03:24;;;;;;;26.50;22.17;;;5.90;96.00;;;;;;5093550;28;20472;-75
2022/04/27 02:05:53;;;;;;;27.73;25.37;;;5.90;96.00;;;;;;5092961;28;20475;-76
2022/04/27 02:08:25;;;;;;;23.33;21.33;;;5.90;96.00;;;;;;5127991;27;20861;-75
2022/04/27 02:10:54;;;;;;;21.30;18.40;;;5.90;96.00;;;;;;5093799;28;20795;-77
2022/04/27 02:13:25;;;;;;;26.20;23.97;;;5.80;96.00;;;;;;5127054;27;20859;-76
2022/04/27 02:16:00;;;;;;;23.17;21.17;;;5.80;96.10;;;;;;5079629;28;20481;-75
2022/04/27 02:18:35;;;;;;;23.20;21.23;;;5.80;96.10;;;;;;5073264;28;20559;-76
2022/04/27 02:21:05;;;;;;;28.27;26.17;;;5.80;96.10;;;;;;5072481;28;20460;-76
2022/04/27 02:23:35;;;;;;;32.67;30.20;;;5.80;96.10;;;;;;5073396;28;20467;-76
2022/04/27 02:26:04;;;;;;;25.47;23.30;;;5.80;96.10;;;;;;5073587;28;20451;-76
2022/04/27 02:28:32;;;;;;;26.30;23.80;;;5.70;96.10;;;;;;5072176;28;20472;-76
2022/04/27 02:31:00;;;;;;;29.13;26.97;;;5.80;96.10;;;;;;5086295;28;20483;-76
2022/04/27 02:33:30;;;;;;;23.70;21.50;;;5.70;96.10;;;;;;5127874;27;20961;-75
2022/04/27 02:35:59;;;;;;;21.93;20.10;;;5.70;96.10;;;;;;5084958;28;20806;-76
2022/04/27 02:38:28;;;;;;;19.90;17.97;;;5.70;96.00;;;;;;5072390;28;20516;-76
2022/04/27 02:41:03;;;;;;;21.20;19.23;;;5.70;96.00;;;;;;5083296;28;20794;-75
2022/04/27 02:43:32;;;;;;;20.57;18.60;;;5.70;96.00;;;;;;5093018;28;20491;-76
2022/04/27 02:46:03;;;;;;;20.40;18.40;;;5.60;95.90;;;;;;5092319;28;20440;-76
2022/04/27 02:48:32;;;;;;;18.00;16.10;;;5.60;96.00;;;;;;5093465;28;20578;-76
2022/04/27 02:53:47;;;;;;;19.13;17.20;;;5.60;95.90;;;;;;5082940;28;20467;-76
2022/04/27 02:56:19;;;;;;;18.53;16.73;;;5.50;95.90;;;;;;5074524;28;20456;-76
2022/04/27 02:58:47;;;;;;;19.90;17.50;;;5.50;95.90;;;;;;5075413;28;20467;-76
2022/04/27 03:01:15;;;;;;;19.23;17.20;;;5.50;95.80;;;;;;5072158;28;20944;-76
2022/04/27 03:03:43;;;;;;;19.27;17.30;;;5.50;95.80;;;;;;5092448;28;20464;-76
2022/04/27 03:06:12;;;;;;;19.30;17.33;;;5.40;95.80;;;;;;5088463;28;20462;-75
2022/04/27 03:08:40;;;;;;;18.67;17.07;;;5.40;95.80;;;;;;5072171;28;20497;-76
2022/04/27 03:11:08;;;;;;;18.40;16.70;;;5.40;95.80;;;;;;5072191;28;20863;-76
2022/04/27 03:14:00;;;;;;;18.33;16.73;;;5.40;95.80;;;;;;5073550;28;20453;-75
2022/04/27 03:16:28;;;;;;;18.00;16.17;;;5.30;95.70;;;;;;5072243;28;20543;-76
2022/04/27 03:18:57;;;;;;;18.10;16.20;;;5.30;95.70;;;;;;5071867;28;20461;-76
2022/04/27 03:21:26;;;;;;;16.90;15.10;;;5.30;95.70;;;;;;5080703;28;20546;-76
2022/04/27 03:23:54;;;;;;;17.40;15.33;;;5.30;95.70;;;;;;5072317;28;20921;-76
2022/04/27 03:26:23;;;;;;;18.20;16.50;;;5.20;95.60;;;;;;5071791;28;20481;-76
2022/04/27 03:28:52;;;;;;;18.80;16.93;;;5.20;95.60;;;;;;5074291;28;20526;-76
2022/04/27 03:31:22;;;;;;;22.83;20.80;;;5.20;95.90;;;;;;5075381;28;20524;-76
2022/04/27 03:33:51;;;;;;;18.97;17.27;;;5.10;95.60;;;;;;5075546;28;20805;-76
2022/04/27 03:36:20;;;;;;;20.87;19.00;;;5.20;95.60;;;;;;5074209;28;20854;-76
2022/04/27 03:38:49;;;;;;;17.60;15.80;;;5.10;95.60;;;;;;5072793;28;20469;-76
2022/04/27 03:41:20;;;;;;;22.73;20.77;;;5.10;95.60;;;;;;5073130;28;20449;-76
2022/04/27 03:43:49;;;;;;;21.40;19.20;;;5.10;95.60;;;;;;5075759;28;20496;-76
2022/04/27 03:46:19;;;;;;;18.53;16.63;;;5.00;95.60;;;;;;5091496;28;20454;-76
2022/04/27 03:49:09;;;;;;;16.93;15.23;;;5.00;95.60;;;;;;5083568;28;20901;-76
2022/04/27 03:51:37;;;;;;;23.23;21.20;;;5.00;95.50;;;;;;5095538;28;20819;-76
2022/04/27 03:54:06;;;;;;;24.37;22.30;;;5.00;95.60;;;;;;5096249;28;20463;-75
2022/04/27 03:56:34;;;;;;;21.20;19.10;;;4.90;95.50;;;;;;5095664;28;20854;-76
2022/04/27 03:59:03;;;;;;;21.63;17.77;;;4.90;95.80;;;;;;5095442;28;20495;-76
2022/04/27 04:01:31;;;;;;;22.20;18.33;;;4.90;95.50;;;;;;5096543;28;20444;-75
2022/04/27 04:03:59;;;;;;;17.57;15.80;;;4.90;95.60;;;;;;5095518;28;20468;-76
2022/04/27 04:06:29;;;;;;;26.97;24.77;;;4.80;95.50;;;;;;5095338;28;20448;-76
2022/04/27 04:08:58;;;;;;;22.30;16.73;;;4.80;95.60;;;;;;5129886;27;20468;-76
2022/04/27 04:11:26;;;;;;;29.20;26.93;;;4.80;95.50;;;;;;5097443;28;20876;-76
2022/04/27 04:14:17;;;;;;;20.83;18.63;;;4.80;95.60;;;;;;5085145;28;20432;-76
2022/04/27 04:16:52;;;;;;;22.37;19.00;;;4.80;95.60;;;;;;5095289;28;20543;-75
2022/04/27 04:19:49;;;;;;;21.83;19.27;;;4.70;95.50;;;;;;5095417;28;20843;-76
2022/04/27 04:22:37;;;;;;;18.30;16.40;;;4.70;95.50;;;;;;5077915;28;20456;-76
2022/04/27 04:30:51;;;;;;;19.43;17.53;;;4.70;95.60;;;;;;5074644;28;20463;-76
2022/04/27 04:33:49;;;;;;;21.53;18.93;;;4.60;95.60;;;;;;5072327;28;20437;-76
2022/04/27 04:36:18;;;;;;;21.33;19.23;;;4.60;95.60;;;;;;5087438;28;20448;-76
2022/04/27 04:38:48;;;;;;;22.47;19.97;;;4.60;95.70;;;;;;5090491;28;20507;-76
2022/04/27 04:41:24;;;;;;;21.43;19.23;;;4.60;95.70;;;;;;5109766;27;20495;-75
2022/04/27 04:43:59;;;;;;;31.70;29.10;;;4.60;95.80;;;;;;5075252;28;20556;-76
2022/04/27 04:46:31;;;;;;;23.50;21.27;;;4.60;95.80;;;;;;5074388;28;20445;-76
2022/04/27 04:49:20;;;;;;;21.30;19.13;;;4.60;95.80;;;;;;5068932;28;20473;-76
2022/04/27 04:52:07;;;;;;;21.60;19.67;;;4.60;95.80;;;;;;5093185;28;20933;-76
2022/04/27 04:54:54;;;;;;;23.50;21.13;;;4.60;95.80;;;;;;5094484;28;20440;-76
2022/04/27 04:57:33;;;;;;;21.33;19.30;;;4.70;95.90;;;;;;5094747;28;20986;-76
2022/04/27 05:00:20;;;;;;;24.70;22.40;;;4.70;95.90;;;;;;5096037;28;20489;-75
2022/04/27 05:02:51;;;;;;;23.73;21.70;;;4.70;96.00;;;;;;5095806;28;20891;-76
2022/04/27 05:05:48;;;;;;;21.13;18.83;;;4.70;96.00;;;;;;5082802;28;20460;-76
2022/04/27 05:08:26;;;;;;;24.97;22.63;;;4.70;96.00;;;;;;5081923;28;20986;-76
2022/04/27 05:11:20;;;;;;;30.13;27.83;;;4.70;96.10;;;;;;5093924;28;20514;-76
2022/04/27 05:14:12;;;;;;;24.93;22.57;;;4.70;96.20;;;;;;5093169;28;20432;-75
2022/04/27 05:17:19;;;;;;;59.63;56.10;;;4.80;96.30;;;;;;5072995;28;20445;-76
2022/04/27 05:20:12;;;;;;;37.37;34.43;;;4.80;96.40;;;;;;5056349;28;20995;-76
2022/04/27 05:22:52;;;;;;;35.00;32.03;;;4.80;96.40;;;;;;5078723;28;20460;-76
2022/04/27 05:25:30;;;;;;;39.90;36.60;;;4.90;96.60;;;;;;5127803;27;20465;-76
2022/04/27 05:28:17;;;;;;;41.00;37.20;;;4.90;96.70;;;;;;5107649;28;20469;-75
2022/04/27 05:34:06;;;;;;;33.93;31.27;;;5.00;96.90;;;;;;5066988;28;20451;-77
2022/04/27 05:36:44;;;;;;;42.47;39.70;;;5.10;97.10;;;;;;5074369;28;20446;-77
2022/04/27 05:39:30;;;;;;;38.70;35.93;;;5.10;97.10;;;;;;5080191;28;20471;-76
2022/04/27 05:42:31;;;;;;;44.60;41.20;;;5.20;97.20;;;;;;5085720;28;20445;-76
2022/04/27 05:45:19;;;;;;;34.93;32.37;;;5.30;97.40;;;;;;5095672;28;20463;-76
2022/04/27 05:48:03;;;;;;;34.93;32.30;;;5.40;97.50;;;;;;5094131;28;20541;-76
2022/04/27 05:50:58;;;;;;;41.43;38.83;;;5.50;97.60;;;;;;5092259;28;20464;-76
2022/04/27 05:53:44;;;;;;;41.77;38.67;;;5.60;97.70;;;;;;5095467;28;20472;-77
2022/04/27 05:56:31;;;;;;;39.37;36.57;;;5.70;97.80;;;;;;5095507;28;20436;-76
2022/04/27 05:59:08;;;;;;;43.70;41.03;;;5.90;98.00;;;;;;5093286;28;20554;-77
2022/04/27 06:02:16;;;;;;;24.87;22.63;;;6.20;98.20;;;;;;5052755;28;20975;-77
2022/04/27 06:04:45;;;;;;;19.70;17.67;;;6.60;98.40;;;;;;5082871;28;20475;-77
2022/04/27 06:07:14;;;;;;;20.13;18.00;;;6.80;98.60;;;;;;5079173;28;20467;-77
2022/04/27 06:09:42;;;;;;;20.17;16.97;;;7.10;98.70;;;;;;5073550;28;20910;-77
2022/04/27 06:12:35;;;;;;;19.33;17.27;;;7.50;98.90;;;;;;5074269;28;20452;-77
2022/04/27 06:15:22;;;;;;;17.53;14.90;;;7.80;99.00;;;;;;5074257;28;20784;-78
2022/04/27 06:17:58;;;;;;;14.87;11.47;;;8.20;99.10;;;;;;5107370;28;20478;-77
2022/04/27 06:20:29;;;;;;;20.27;10.53;;;8.50;99.00;;;;;;5073180;28;20448;-78
2022/04/27 06:22:58;;;;;;;14.50;10.50;;;8.80;99.00;;;;;;5113690;27;20534;-77
2022/04/27 06:25:26;;;;;;;14.20;10.37;;;9.10;99.00;;;;;;5077389;28;20465;-75
2022/04/27 06:28:21;;;;;;;14.73;9.73;;;9.40;99.00;;;;;;5071661;28;20461;-78
2022/04/27 06:30:52;;;;;;;14.73;9.97;;;9.80;98.90;;;;;;5073642;28;20453;-78
2022/04/27 06:33:21;;;;;;;17.10;9.17;;;10.10;98.30;;;;;;5074655;28;20447;-78
2022/04/27 06:35:50;;;;;;;12.27;9.13;;;10.40;98.30;;;;;;5074800;28;20444;-78
2022/04/27 06:38:19;;;;;;;14.03;9.73;;;10.60;98.10;;;;;;5074686;28;20563;-78
2022/04/27 06:41:22;;;;;;;15.87;10.10;;;10.90;97.80;;;;;;5074981;28;20452;-78
2022/04/27 06:44:29;;;;;;;12.13;9.03;;;11.20;97.60;;;;;;5013967;28;20491;-78
2022/04/27 06:47:16;;;;;;;15.83;8.90;;;11.50;97.40;;;;;;5032134;28;20918;-78
2022/04/27 06:50:06;;;;;;;16.90;9.07;;;11.70;97.20;;;;;;5065858;28;20861;-78
2022/04/27 06:52:54;;;;;;;13.90;8.63;;;12.00;97.10;;;;;;5075675;28;20460;-78
2022/04/27 06:55:41;;;;;;;13.13;8.70;;;12.20;96.80;;;;;;5077307;28;20775;-78
2022/04/27 06:58:30;;;;;;;11.10;8.30;;;12.40;96.70;;;;;;5076808;28;20930;-78
2022/04/27 07:01:03;;;;;;;11.30;7.73;;;12.70;96.60;;;;;;5092709;28;20456;-79
2022/04/27 07:03:33;;;;;;;14.57;7.43;;;12.90;96.20;;;;;;5077517;28;20948;-78
2022/04/27 07:06:03;;;;;;;10.97;6.97;;;13.10;95.90;;;;;;5078934;28;20556;-78
2022/04/27 07:08:32;;;;;;;13.50;9.03;;;13.20;95.60;;;;;;5093558;28;20468;-78
2022/04/27 07:11:00;;;;;;;11.60;7.20;;;13.40;95.50;;;;;;5100678;28;20501;-79
2022/04/27 07:13:29;;;;;;;12.67;7.27;;;13.60;95.30;;;;;;5134401;28;20900;-79
2022/04/27 07:16:00;;;;;;;9.43;6.60;;;13.70;94.90;;;;;;5101214;28;20460;-79
2022/04/27 07:18:29;;;;;;;10.23;6.30;;;13.90;94.70;;;;;;5100591;28;20476;-79
2022/04/27 07:20:58;;;;;;;11.20;6.20;;;14.00;94.50;;;;;;5091670;28;20516;-79
2022/04/27 07:23:27;;;;;;;10.73;5.30;;;14.10;94.20;;;;;;5086687;28;20504;-79
2022/04/27 07:25:55;;;;;;;7.37;4.10;;;14.10;93.80;;;;;;5128671;27;20471;-79
2022/04/27 07:28:24;;;;;;;11.60;5.33;;;13.90;93.50;;;;;;5107700;28;20949;-79
2022/04/27 07:30:52;;;;;;;9.03;5.67;;;13.80;93.30;;;;;;5106351;28;20444;-79
2022/04/27 07:33:22;;;;;;;10.97;6.07;;;13.70;93.00;;;;;;5094513;28;20831;-79
2022/04/27 07:35:50;;;;;;;12.27;6.50;;;13.70;93.00;;;;;;5090721;28;20448;-79
2022/04/27 07:38:19;;;;;;;11.77;6.77;;;13.70;92.90;;;;;;5101574;28;20518;-79
2022/04/27 07:40:48;;;;;;;10.53;4.97;;;13.80;92.90;;;;;;5096391;28;20634;-79
2022/04/27 07:43:18;;;;;;;10.00;5.53;;;14.00;93.20;;;;;;5119703;28;20535;-79
2022/04/27 07:45:46;;;;;;;11.23;5.43;;;14.20;93.10;;;;;;5119613;28;20461;-79
2022/04/27 07:48:14;;;;;;;8.93;6.07;;;14.20;92.50;;;;;;5122977;28;20469;-79
2022/04/27 07:50:43;;;;;;;12.53;5.10;;;14.10;92.30;;;;;;5126958;27;20447;-80
2022/04/27 07:53:11;;;;;;;8.90;5.30;;;14.30;92.40;;;;;;5099448;28;20457;-79
2022/04/27 07:55:39;;;;;;;8.67;4.93;;;14.60;92.40;;;;;;5089111;28;20427;-79
2022/04/27 07:58:09;;;;;;;13.23;5.50;;;14.80;92.20;;;;;;5122531;28;20476;-79
2022/04/27 08:00:38;;;;;;;10.60;5.80;;;14.90;91.90;;;;;;5089614;28;20484;-80
2022/04/27 08:03:06;;;;;;;8.43;4.03;;;14.80;91.50;;;;;;5102068;28;20527;-79
2022/04/27 08:05:35;;;;;;;7.43;3.60;;;14.50;91.00;;;;;;5105868;28;20451;-80
2022/04/27 08:08:03;;;;;;;8.33;4.63;;;14.30;90.70;;;;;;5088106;28;20555;-79
2022/04/27 08:10:31;;;;;;;8.97;5.40;;;14.10;90.40;;;;;;5121242;28;20423;-79
2022/04/27 08:13:00;;;;;;;15.13;7.30;;;13.80;90.20;;;;;;5087328;28;20452;-79
2022/04/27 08:15:30;;;;;;;9.53;5.70;;;13.60;90.10;;;;;;5088258;28;20422;-80
2022/04/27 08:17:59;;;;;;;10.37;5.77;;;13.40;90.00;;;;;;5087397;28;20551;-79
2022/04/27 08:23:22;;;;;;;9.30;6.47;;;13.20;89.50;;;;;;5104617;28;20535;-79
2022/04/27 08:25:51;;;;;;;9.37;6.33;;;13.20;89.50;;;;;;5087623;28;21007;-79
2022/04/27 08:28:19;;;;;;;10.07;6.50;;;13.10;89.40;;;;;;5086660;28;20449;-79
2022/04/27 08:30:50;;;;;;;8.83;5.87;;;13.10;89.40;;;;;;5086867;28;20552;-79
2022/04/27 08:33:20;;;;;;;11.17;5.77;;;13.10;88.90;;;;;;5086179;28;20463;-79
2022/04/27 08:35:49;;;;;;;10.73;6.37;;;13.00;88.50;;;;;;5085359;28;20438;-79
2022/04/27 08:38:37;;;;;;;10.90;6.40;;;13.00;88.60;;;;;;5127765;27;20480;-79
2022/04/27 08:41:06;;;;;;;9.87;6.40;;;13.10;88.50;;;;;;5105229;28;20436;-79
2022/04/27 08:43:34;;;;;;;8.63;5.63;;;13.10;87.50;;;;;;5106033;28;20447;-79
2022/04/27 08:46:06;;;;;;;10.97;6.63;;;13.00;87.60;;;;;;5103937;28;20464;-79
2022/04/27 08:48:34;;;;;;;11.23;6.50;;;13.00;87.00;;;;;;5095641;28;21031;-79
2022/04/27 08:51:05;;;;;;;9.83;5.80;;;13.00;87.00;;;;;;5102340;28;20441;-78
2022/04/27 08:53:33;;;;;;;9.77;5.93;;;13.20;87.10;;;;;;5085559;28;20465;-79
2022/04/27 08:56:02;;;;;;;8.60;5.80;;;13.50;87.20;;;;;;5085553;28;20426;-79
2022/04/27 08:58:30;;;;;;;9.23;6.07;;;13.60;87.10;;;;;;5118081;28;20520;-79
2022/04/27 09:01:16;;;;;;;9.23;5.50;;;13.90;86.70;;;;;;5087052;28;20455;-79
2022/04/27 09:03:44;;;;;;;8.60;5.90;;;14.10;87.10;;;;;;5086592;28;20546;-79
2022/04/27 09:06:15;;;;;;;9.73;5.80;;;14.40;87.40;;;;;;5091860;28;20469;-79
2022/04/27 09:08:46;;;;;;;10.40;6.47;;;14.60;86.70;;;;;;5092843;28;20521;-80
2022/04/27 09:11:20;;;;;;;10.97;5.30;;;14.80;86.50;;;;;;5108559;28;20444;-80
2022/04/27 09:13:53;;;;;;;8.97;5.23;;;15.00;86.10;;;;;;5107709;28;20870;-80
2022/04/27 09:16:24;;;;;;;10.30;5.07;;;15.10;84.40;;;;;;5107873;28;20849;-80
2022/04/27 09:21:59;;;;;;;10.37;5.60;;;14.80;82.90;;;;;;5128117;27;20510;-80
2022/04/27 09:24:29;;;;;;;9.03;5.20;;;14.60;82.20;;;;;;5087456;28;20470;-80
2022/04/27 09:27:14;;;;;;;9.80;5.00;;;14.50;82.70;;;;;;5087899;28;20460;-80
2022/04/27 09:29:43;;;;;;;9.97;5.30;;;14.60;82.60;;;;;;5086814;28;20462;-80
2022/04/27 09:32:18;;;;;;;7.77;5.10;;;14.70;82.40;;;;;;5087426;28;20441;-80
2022/04/27 09:34:47;;;;;;;9.13;5.50;;;14.90;82.50;;;;;;5087729;28;20444;-80
2022/04/27 09:37:17;;;;;;;8.63;4.97;;;15.10;82.80;;;;;;5088998;28;20468;-80
2022/04/27 09:39:46;;;;;;;7.10;5.13;;;15.40;83.00;;;;;;5102522;28;20480;-82
2022/04/27 09:42:15;;;;;;;9.30;5.80;;;15.60;81.70;;;;;;5089372;28;20969;-81
2022/04/27 09:44:44;;;;;;;10.30;5.87;;;15.60;81.20;;;;;;5088639;28;20447;-80
2022/04/27 09:47:22;;;;;;;8.63;5.30;;;15.50;80.20;;;;;;5133958;27;20565;-80
2022/04/27 09:49:56;;;;;;;10.60;6.17;;;15.30;79.50;;;;;;5109363;28;20442;-81
2022/04/27 09:52:28;;;;;;;9.00;5.90;;;15.20;80.10;;;;;;5107603;28;20460;-80
2022/04/27 09:54:59;;;;;;;8.00;5.20;;;15.10;80.20;;;;;;5106400;28;20453;-80
2022/04/27 09:57:30;;;;;;;11.00;7.00;;;15.10;80.30;;;;;;5108385;28;20398;-80
2022/04/27 09:59:58;;;;;;;9.50;5.47;;;15.10;79.70;;;;;;5101315;28;20495;-80
2022/04/27 10:02:30;;;;;;;8.13;5.17;;;15.10;79.70;;;;;;5096916;28;20455;-80
2022/04/27 10:05:01;;;;;;;7.43;5.23;;;15.10;79.70;;;;;;5095488;28;20432;-80
2022/04/27 10:07:32;;;;;;;11.67;6.17;;;15.10;79.60;;;;;;5091894;28;20439;-80
2022/04/27 10:10:00;;;;;;;8.23;5.40;;;15.30;79.40;;;;;;5119648;28;20469;-80
2022/04/27 10:12:28;;;;;;;10.20;6.20;;;15.30;78.90;;;;;;5085070;28;20493;-80
2022/04/27 10:14:59;;;;;;;10.70;5.97;;;15.40;79.00;;;;;;5087112;28;20431;-81
2022/04/27 10:17:30;;;;;;;10.53;6.50;;;15.50;78.80;;;;;;5085116;28;20441;-80
2022/04/27 10:19:58;;;;;;;8.10;6.20;;;15.60;78.90;;;;;;5092885;28;20489;-80
2022/04/27 10:22:30;;;;;;;10.00;6.40;;;15.80;78.40;;;;;;5108422;28;20493;-81
2022/04/27 10:25:04;;;;;;;8.67;6.53;;;15.80;78.00;;;;;;5106723;28;20501;-80
2022/04/27 10:27:37;;;;;;;9.73;6.93;;;15.90;77.60;;;;;;5106555;28;20452;-80
2022/04/27 10:30:08;;;;;;;9.57;6.50;;;15.70;76.70;;;;;;5106260;28;20450;-80
2022/04/27 10:32:43;;;;;;;8.43;6.10;;;15.60;76.70;;;;;;5086716;28;20408;-80
2022/04/27 10:35:25;;;;;;;8.87;6.03;;;15.50;76.80;;;;;;5085322;28;20440;-80
2022/04/27 10:37:57;;;;;;;9.40;6.53;;;15.50;76.70;;;;;;5086216;28;20949;-79
2022/04/27 10:40:30;;;;;;;10.20;6.20;;;15.60;77.10;;;;;;5107387;28;20454;-80
2022/04/27 10:43:10;;;;;;;8.17;6.00;;;15.70;77.40;;;;;;5105007;28;20502;-80
2022/04/27 10:45:39;;;;;;;10.80;7.00;;;15.90;77.40;;;;;;5104411;28;20840;-80
2022/04/27 10:48:17;;;;;;;8.93;6.37;;;16.00;77.40;;;;;;5104147;28;20447;-80
2022/04/27 10:50:56;;;;;;;10.70;6.80;;;16.00;76.90;;;;;;5102934;28;20488;-80
2022/04/27 10:53:26;;;;;;;8.73;6.43;;;16.10;76.50;;;;;;5129548;27;20459;-80
2022/04/27 10:56:03;;;;;;;8.53;6.03;;;16.10;76.30;;;;;;5113507;28;20398;-80
2022/04/27 10:58:33;;;;;;;7.90;5.80;;;16.20;76.10;;;;;;5112093;28;20528;-80
2022/04/27 11:01:27;;;;;;;10.53;6.83;;;16.30;76.00;;;;;;5114243;28;20448;-80
2022/04/27 11:04:08;;;;;;;9.77;6.70;;;16.40;76.20;;;;;;5114779;28;20424;-80
2022/04/27 11:07:12;;;;;;;10.73;6.00;;;16.60;76.30;;;;;;5112823;28;20461;-80
2022/04/27 11:10:14;;;;;;;8.80;5.60;;;16.60;75.50;;;;;;5089664;28;20463;-80
2022/04/27 11:12:46;;;;;;;8.87;5.70;;;16.40;75.60;;;;;;5094194;28;20392;-80
2022/04/27 11:15:21;;;;;;;8.20;5.43;;;16.30;75.90;;;;;;5091592;28;20415;-80
2022/04/27 11:18:00;;;;;;;9.07;6.10;;;16.40;76.20;;;;;;5126453;28;20513;-80
2022/04/27 11:20:32;;;;;;;11.43;6.70;;;16.50;76.10;;;;;;5140029;27;20547;-80
2022/04/27 11:23:03;;;;;;;9.00;7.20;;;16.50;75.50;;;;;;5092291;28;20470;-80
2022/04/27 11:25:33;;;;;;;11.13;6.53;;;16.50;75.40;;;;;;5133702;27;20434;-80
2022/04/27 11:28:02;;;;;;;8.63;6.40;;;16.50;75.20;;;;;;5125489;28;20563;-80
2022/04/27 11:30:32;;;;;;;9.97;5.73;;;16.40;75.10;;;;;;5089867;28;20487;-80
2022/04/27 11:33:02;;;;;;;9.13;6.23;;;16.40;74.70;;;;;;5125219;28;20460;-80
2022/04/27 11:35:44;;;;;;;11.97;6.90;;;16.30;74.70;;;;;;5128491;28;20482;-80
2022/04/27 11:38:18;;;;;;;7.77;6.10;;;16.30;74.60;;;;;;5098339;28;20447;-79
2022/04/27 11:40:48;;;;;;;12.50;7.17;;;16.30;74.60;;;;;;5125770;27;20476;-80
2022/04/27 11:43:24;;;;;;;11.33;6.57;;;16.30;74.20;;;;;;5091300;28;20564;-80
2022/04/27 11:45:53;;;;;;;9.13;6.70;;;16.30;74.30;;;;;;5089938;28;20535;-79
2022/04/27 11:48:22;;;;;;;8.53;5.47;;;16.30;74.30;;;;;;5089192;28;20450;-80
2022/04/27 11:50:53;;;;;;;10.07;6.70;;;16.30;74.30;;;;;;5090528;28;20457;-79
2022/04/27 11:53:21;;;;;;;9.97;6.90;;;16.30;74.30;;;;;;5090463;28;20431;-79
2022/04/27 11:55:51;;;;;;;9.43;6.00;;;16.30;73.90;;;;;;5102360;28;20432;-79
2022/04/27 11:58:23;;;;;;;10.60;6.90;;;16.30;73.80;;;;;;5107338;28;20454;-79
2022/04/27 12:00:55;;;;;;;10.37;6.30;;;16.30;73.80;;;;;;5095010;28;20506;-79
2022/04/27 12:03:24;;;;;;;8.87;6.03;;;16.20;73.70;;;;;;5118420;28;20506;-79
2022/04/27 12:05:55;;;;;;;10.40;7.13;;;16.10;73.50;;;;;;5083685;28;20451;-80
2022/04/27 12:08:25;;;;;;;9.67;6.37;;;16.00;73.60;;;;;;5084397;28;20456;-79
2022/04/27 12:10:54;;;;;;;8.47;5.90;;;15.90;73.50;;;;;;5116547;28;20462;-79
2022/04/27 12:13:23;;;;;;;8.83;6.40;;;15.90;73.50;;;;;;5119023;28;20492;-79
2022/04/27 12:15:54;;;;;;;9.37;5.87;;;16.00;73.60;;;;;;5120356;28;20420;-79
2022/04/27 12:18:25;;;;;;;12.17;6.47;;;16.00;73.70;;;;;;5085107;28;20537;-79
2022/04/27 12:20:56;;;;;;;8.10;6.20;;;16.00;73.50;;;;;;5131818;27;20454;-79
2022/04/27 12:23:36;;;;;;;9.30;7.40;;;16.00;73.10;;;;;;5102659;28;20782;-79
2022/04/27 12:26:06;;;;;;;12.13;6.30;;;16.00;73.20;;;;;;5084006;28;20472;-79
2022/04/27 12:28:44;;;;;;;9.17;6.00;;;15.90;73.30;;;;;;5083524;28;20477;-79
2022/04/27 12:31:14;;;;;;;9.17;6.67;;;15.90;72.70;;;;;;5117345;28;20535;-79
2022/04/27 12:33:44;;;;;;;9.33;5.73;;;15.90;72.80;;;;;;5084559;28;20483;-79
2022/04/27 12:39:04;;;;;;;9.93;6.67;;;15.70;72.10;;;;;;5136870;27;20536;-79
2022/04/27 12:41:34;;;;;;;8.47;6.00;;;15.60;72.20;;;;;;5086138;28;20486;-79
2022/04/27 12:44:03;;;;;;;9.77;6.80;;;15.60;72.60;;;;;;5089694;28;20494;-79
2022/04/27 12:46:57;;;;;;;12.23;7.70;;;15.70;72.80;;;;;;5101600;28;20414;-79
2022/04/27 12:49:26;;;;;;;8.57;5.93;;;15.60;72.40;;;;;;5102267;28;20458;-79
2022/04/27 12:52:13;;;;;;;10.00;6.60;;;15.60;71.70;;;;;;5089181;28;20445;-79
2022/04/27 12:54:42;;;;;;;9.33;6.20;;;15.60;72.10;;;;;;5115130;28;20502;-79
2022/04/27 12:57:10;;;;;;;10.73;6.13;;;15.60;71.90;;;;;;5083224;28;20443;-79
2022/04/27 12:59:57;;;;;;;8.60;5.83;;;15.50;71.90;;;;;;5115981;28;20465;-78
2022/04/27 13:02:26;;;;;;;8.70;5.87;;;15.50;72.30;;;;;;5081331;28;20491;-79
2022/04/27 13:04:54;;;;;;;7.70;5.43;;;15.60;72.20;;;;;;5115278;28;20416;-79
2022/04/27 13:07:23;;;;;;;9.30;5.83;;;15.60;72.40;;;;;;5082458;28;20931;-79
2022/04/27 13:12:38;;;;;;;8.10;5.90;;;15.70;72.00;;;;;;5079209;28;20407;-79
2022/04/27 13:15:08;;;;;;;9.20;5.80;;;15.80;71.80;;;;;;5114637;28;20453;-79
2022/04/27 13:17:36;;;;;;;7.90;5.50;;;15.90;71.70;;;;;;5083442;28;20449;-79
2022/04/27 13:20:07;;;;;;;7.80;5.87;;;15.90;71.70;;;;;;5081989;28;20435;-79
2022/04/27 13:22:36;;;;;;;8.37;6.20;;;16.00;71.60;;;;;;5116047;28;20451;-79
2022/04/27 13:25:06;;;;;;;8.70;6.00;;;16.00;71.50;;;;;;5122953;27;20513;-79
2022/04/27 13:27:34;;;;;;;10.10;6.93;;;16.10;71.50;;;;;;5103174;28;20446;-79
2022/04/27 13:30:08;;;;;;;11.97;7.00;;;16.00;71.60;;;;;;5101290;28;20463;-79
2022/04/27 13:32:36;;;;;;;14.20;7.50;;;16.00;71.30;;;;;;5094750;28;20408;-79
2022/04/27 13:35:05;;;;;;;10.63;6.30;;;15.90;71.20;;;;;;5112042;28;20457;-79
2022/04/27 13:37:33;;;;;;;12.47;7.97;;;15.90;71.10;;;;;;5078294;28;20520;-78